createdAt,value
2023-02-27T00:02:26.851Z,48.94
2023-02-27T00:04:57.529Z,49.31
2023-02-27T00:07:28.884Z,49.29
2023-02-27T00:09:57.177Z,49.19
2023-02-27T00:12:26.694Z,48.80
2023-02-27T00:14:54.971Z,48.93
2023-02-27T00:17:25.975Z,48.86
2023-02-27T00:19:54.362Z,49.09
2023-02-27T00:22:22.627Z,49.18
2023-02-27T00:24:52.448Z,49.30
2023-02-27T00:27:20.816Z,49.32
2023-02-27T00:29:49.191Z,49.30
2023-02-27T00:32:17.794Z,49.27
2023-02-27T00:34:47.804Z,49.34
2023-02-27T00:37:16.108Z,49.48
2023-02-27T00:39:44.370Z,49.45
2023-02-27T00:42:14.077Z,49.46
2023-02-27T00:44:42.315Z,49.48
2023-02-27T00:47:10.598Z,49.50
2023-02-27T00:49:41.224Z,49.51
2023-02-27T00:52:10.391Z,49.34
2023-02-27T00:54:38.711Z,49.29
2023-02-27T00:57:07.008Z,49.15
2023-02-27T00:59:36.710Z,49.39
2023-02-27T01:02:05.139Z,49.65
2023-02-27T01:04:34.738Z,49.98
2023-02-27T01:07:03.054Z,49.90
2023-02-27T01:09:31.571Z,49.84
2023-02-27T01:11:59.865Z,49.48
2023-02-27T01:14:30.635Z,49.52
2023-02-27T01:17:00.278Z,49.63
2023-02-27T01:19:28.769Z,49.84
2023-02-27T01:21:57.000Z,50.01
2023-02-27T01:24:25.355Z,50.03
2023-02-27T01:26:53.793Z,50.05
2023-02-27T01:29:22.113Z,50.19
2023-02-27T01:31:50.447Z,50.16
2023-02-27T01:34:20.170Z,50.17
2023-02-27T01:36:48.494Z,50.14
2023-02-27T01:39:17.769Z,50.15
2023-02-27T01:41:46.079Z,50.13
2023-02-27T01:44:15.619Z,50.12
2023-02-27T01:46:44.215Z,50.08
2023-02-27T01:49:17.541Z,50.07
2023-02-27T01:51:50.708Z,49.99
2023-02-27T01:54:21.574Z,50.08
2023-02-27T01:56:51.154Z,50.11
2023-02-27T01:59:20.634Z,50.13
2023-02-27T02:01:52.887Z,50.09
2023-02-27T02:04:27.291Z,50.05
2023-02-27T02:07:00.984Z,50.18
2023-02-27T02:09:30.752Z,50.27
2023-02-27T02:12:00.403Z,50.33
2023-02-27T02:14:28.683Z,50.50
2023-02-27T02:17:11.151Z,50.44
2023-02-27T02:20:31.460Z,50.20
2023-02-27T02:23:52.929Z,50.21
2023-02-27T02:26:37.927Z,50.34
2023-02-27T02:29:36.921Z,50.35
2023-02-27T02:32:35.613Z,50.37
2023-02-27T02:35:32.815Z,50.34
2023-02-27T02:38:28.541Z,50.38
2023-02-27T02:41:03.780Z,50.60
2023-02-27T02:43:42.087Z,51.08
2023-02-27T02:46:16.652Z,50.94
2023-02-27T02:48:50.613Z,50.89
2023-02-27T02:51:25.001Z,50.97
2023-02-27T02:54:01.846Z,50.95
2023-02-27T02:56:37.592Z,50.88
2023-02-27T02:59:12.861Z,50.86
2023-02-27T03:01:46.653Z,50.85
2023-02-27T03:04:19.637Z,50.85
2023-02-27T03:06:52.530Z,50.82
2023-02-27T03:09:27.264Z,50.58
2023-02-27T03:12:00.938Z,50.40
2023-02-27T03:14:33.634Z,50.33
2023-02-27T03:17:08.098Z,50.32
2023-02-27T03:19:42.321Z,50.30
2023-02-27T03:22:14.697Z,50.38
2023-02-27T03:24:46.266Z,50.38
2023-02-27T03:27:18.787Z,50.37
2023-02-27T03:29:55.026Z,50.37
2023-02-27T03:32:30.282Z,50.72
2023-02-27T03:34:59.018Z,50.50
2023-02-27T03:37:37.556Z,50.43
2023-02-27T03:40:14.721Z,50.66
2023-02-27T03:42:49.023Z,50.56
2023-02-27T03:45:33.649Z,50.42
2023-02-27T03:48:03.360Z,50.69
2023-02-27T03:50:31.914Z,50.77
2023-02-27T03:53:00.980Z,50.82
2023-02-27T03:55:33.668Z,50.83
2023-02-27T03:58:03.938Z,50.81
2023-02-27T04:00:33.094Z,50.80
2023-02-27T04:03:02.567Z,50.79
2023-02-27T04:05:32.540Z,50.79
2023-02-27T04:08:33.555Z,50.58
2023-02-27T04:11:18.133Z,50.65
2023-02-27T04:14:01.509Z,50.60
2023-02-27T04:17:04.915Z,50.63
2023-02-27T04:19:45.834Z,50.81
2023-02-27T04:22:26.624Z,50.82
2023-02-27T04:25:03.673Z,50.92
2023-02-27T04:27:38.406Z,50.94
2023-02-27T04:30:17.890Z,50.82
2023-02-27T04:32:53.411Z,50.98
2023-02-27T04:35:27.149Z,51.03
2023-02-27T04:38:01.202Z,51.04
2023-02-27T04:40:33.844Z,51.11
2023-02-27T04:43:05.550Z,51.14
2023-02-27T04:45:38.684Z,51.12
2023-02-27T04:48:11.608Z,51.21
2023-02-27T04:50:46.088Z,51.19
2023-02-27T04:53:20.450Z,51.20
2023-02-27T04:55:51.964Z,51.21
2023-02-27T04:58:25.253Z,51.17
2023-02-27T05:01:00.659Z,51.09
2023-02-27T05:03:34.669Z,51.12
2023-02-27T05:06:04.449Z,51.26
2023-02-27T05:08:39.937Z,51.24
2023-02-27T05:11:12.424Z,51.32
2023-02-27T05:13:44.820Z,51.34
2023-02-27T05:16:21.066Z,51.21
2023-02-27T05:18:50.219Z,51.27
2023-02-27T05:21:27.958Z,51.09
2023-02-27T05:24:07.752Z,51.17
2023-02-27T05:26:47.807Z,51.22
2023-02-27T05:29:21.637Z,51.44
2023-02-27T05:31:56.465Z,51.60
2023-02-27T05:34:30.088Z,51.89
2023-02-27T05:37:03.092Z,52.04
2023-02-27T05:39:34.692Z,52.23
2023-02-27T05:42:06.427Z,52.35
2023-02-27T05:44:37.499Z,52.43
2023-02-27T05:47:11.642Z,52.52
2023-02-27T05:49:44.277Z,52.76
2023-02-27T05:52:14.992Z,52.81
2023-02-27T05:54:50.452Z,52.82
2023-02-27T05:57:22.672Z,52.91
2023-02-27T05:59:59.339Z,52.83
2023-02-27T06:02:29.259Z,53.04
2023-02-27T06:04:57.990Z,53.10
2023-02-27T06:07:26.297Z,53.13
2023-02-27T06:09:54.856Z,53.46
2023-02-27T06:12:23.170Z,53.38
2023-02-27T06:14:51.863Z,53.44
2023-02-27T06:17:20.280Z,53.43
2023-02-27T06:19:50.176Z,53.51
2023-02-27T06:22:18.494Z,53.54
2023-02-27T06:24:46.704Z,53.62
2023-02-27T06:27:15.043Z,53.59
2023-02-27T06:29:43.268Z,53.56
2023-02-27T06:32:11.660Z,53.52
2023-02-27T06:34:39.956Z,53.44
2023-02-27T06:37:09.734Z,53.47
2023-02-27T06:39:38.084Z,53.52
2023-02-27T06:42:06.507Z,53.58
2023-02-27T06:44:35.022Z,53.65
2023-02-27T06:47:03.256Z,53.63
2023-02-27T06:49:31.607Z,53.80
2023-02-27T06:51:59.874Z,53.93
2023-02-27T06:54:29.641Z,53.89
2023-02-27T06:56:57.858Z,53.90
2023-02-27T06:59:26.271Z,53.90
2023-02-27T07:01:54.690Z,53.83
2023-02-27T07:04:22.956Z,53.82
2023-02-27T07:07:32.734Z,53.87
2023-02-27T07:09:41.018Z,53.92
2023-02-27T07:12:09.754Z,54.07
2023-02-27T07:14:38.235Z,54.13
2023-02-27T07:17:06.531Z,54.23
2023-02-27T07:19:36.044Z,54.36
2023-02-27T07:22:05.234Z,54.45
2023-02-27T07:24:33.595Z,54.46
2023-02-27T07:27:03.261Z,54.59
2023-02-27T07:29:31.611Z,54.48
2023-02-27T07:32:01.595Z,54.38
2023-02-27T07:34:29.921Z,54.39
2023-02-27T07:36:58.206Z,54.46
2023-02-27T07:39:26.499Z,54.75
2023-02-27T07:41:54.818Z,54.65
2023-02-27T07:44:25.365Z,54.69
2023-02-27T07:46:53.770Z,54.75
2023-02-27T07:49:22.071Z,54.66
2023-02-27T07:51:50.409Z,54.58
2023-02-27T07:54:18.848Z,54.49
2023-02-27T07:56:47.160Z,54.38
2023-02-27T07:59:15.678Z,54.43
2023-02-27T08:01:45.440Z,54.56
2023-02-27T08:04:13.780Z,54.59
2023-02-27T08:06:42.617Z,54.56
2023-02-27T08:09:11.574Z,54.54
2023-02-27T08:11:39.862Z,54.50
2023-02-27T08:14:08.288Z,54.51
2023-02-27T08:16:36.706Z,54.65
2023-02-27T08:19:06.623Z,54.68
2023-02-27T08:21:34.918Z,54.63
2023-02-27T08:24:03.167Z,54.57
2023-02-27T08:26:31.754Z,54.59
2023-02-27T08:29:00.014Z,54.59
2023-02-27T08:31:28.510Z,54.03
2023-02-27T08:34:07.782Z,53.75
2023-02-27T08:36:39.572Z,53.28
2023-02-27T08:39:09.067Z,53.07
2023-02-27T08:41:37.773Z,52.66
2023-02-27T08:44:06.515Z,52.13
2023-02-27T08:46:34.803Z,52.02
2023-02-27T08:49:03.136Z,51.84
2023-02-27T08:51:32.020Z,51.72
2023-02-27T08:54:01.771Z,52.86
2023-02-27T08:56:30.744Z,52.33
2023-02-27T08:58:59.028Z,51.30
2023-02-27T09:01:31.965Z,49.63
2023-02-27T09:04:00.665Z,49.78
2023-02-27T09:06:29.536Z,49.85
2023-02-27T09:08:58.412Z,48.55
2023-02-27T09:11:29.238Z,48.49
2023-02-27T09:13:58.951Z,48.10
2023-02-27T09:16:27.853Z,48.24
2023-02-27T09:18:56.739Z,47.10
2023-02-27T09:21:25.866Z,47.30
2023-02-27T09:23:54.989Z,47.17
2023-02-27T09:26:38.960Z,46.05
2023-02-27T09:29:09.541Z,45.18
2023-02-27T09:31:37.889Z,44.48
2023-02-27T09:34:06.192Z,42.45
2023-02-27T09:36:35.072Z,39.51
2023-02-27T09:39:03.387Z,38.25
2023-02-27T09:41:42.846Z,36.66
2023-02-27T09:44:33.462Z,35.65
2023-02-27T09:47:15.288Z,33.99
2023-02-27T09:49:54.716Z,34.85
2023-02-27T09:52:23.118Z,34.95
2023-02-27T09:54:51.541Z,32.58
2023-02-27T09:57:25.837Z,33.06
2023-02-27T10:00:01.334Z,31.07
2023-02-27T10:02:43.931Z,27.49
2023-02-27T10:05:25.018Z,28.21
2023-02-27T10:08:02.147Z,27.31
2023-02-27T10:10:35.810Z,25.76
2023-02-27T10:13:26.790Z,24.77
2023-02-27T10:15:56.630Z,25.01
2023-02-27T10:18:30.924Z,25.32
2023-02-27T10:21:01.735Z,24.79
2023-02-27T10:23:37.323Z,24.33
2023-02-27T10:26:07.015Z,24.50
2023-02-27T10:28:35.693Z,24.01
2023-02-27T10:31:18.192Z,24.78
2023-02-27T10:33:49.133Z,24.06
2023-02-27T10:36:33.063Z,24.73
2023-02-27T10:39:06.092Z,25.57
2023-02-27T10:41:35.945Z,25.46
2023-02-27T10:44:05.041Z,26.32
2023-02-27T10:46:38.395Z,26.36
2023-02-27T10:49:18.717Z,26.66
2023-02-27T10:51:48.239Z,27.95
2023-02-27T10:54:23.655Z,27.49
2023-02-27T10:56:55.129Z,28.13
2023-02-27T10:59:27.183Z,28.77
2023-02-27T11:02:00.122Z,29.32
2023-02-27T11:04:33.104Z,28.97
2023-02-27T11:07:04.293Z,29.35
2023-02-27T11:09:34.063Z,30.00
2023-02-27T11:12:14.421Z,30.64
2023-02-27T11:14:53.748Z,30.31
2023-02-27T11:17:29.482Z,30.57
2023-02-27T11:19:58.299Z,30.80
2023-02-27T11:22:28.547Z,31.13
2023-02-27T11:25:22.415Z,31.13
2023-02-27T11:27:52.296Z,31.49
2023-02-27T11:30:28.196Z,31.10
2023-02-27T11:33:00.276Z,30.96
2023-02-27T11:35:31.258Z,30.29
2023-02-27T11:38:02.588Z,30.09
2023-02-27T11:40:34.112Z,30.36
2023-02-27T11:43:06.146Z,30.71
2023-02-27T11:46:13.701Z,29.57
2023-02-27T11:48:30.383Z,28.91
2023-02-27T11:51:33.146Z,29.68
2023-02-27T11:54:15.961Z,29.93
2023-02-27T11:56:47.329Z,30.42
2023-02-27T11:59:25.901Z,30.79
2023-02-27T12:02:01.208Z,27.11
2023-02-27T12:04:42.643Z,26.39
2023-02-27T12:07:18.003Z,26.66
2023-02-27T12:09:53.192Z,25.78
2023-02-27T12:12:25.924Z,26.73
2023-02-27T12:15:08.449Z,26.04
2023-02-27T12:17:42.056Z,25.07
2023-02-27T12:20:29.719Z,24.99
2023-02-27T12:22:58.324Z,25.56
2023-02-27T12:25:38.297Z,24.27
2023-02-27T12:28:18.389Z,23.82
2023-02-27T12:30:54.515Z,24.34
2023-02-27T12:33:29.697Z,24.36
2023-02-27T12:36:03.728Z,26.17
2023-02-27T12:38:33.193Z,24.88
2023-02-27T12:41:19.214Z,25.05
2023-02-27T12:43:52.668Z,23.82
2023-02-27T12:46:31.935Z,25.09
2023-02-27T12:49:20.090Z,25.60
2023-02-27T12:51:59.080Z,26.52
2023-02-27T12:54:37.027Z,26.97
2023-02-27T12:57:33.661Z,28.02
2023-02-27T13:00:11.775Z,27.48
2023-02-27T13:03:05.211Z,27.69
2023-02-27T13:05:39.210Z,28.17
2023-02-27T13:08:43.178Z,28.40
2023-02-27T13:11:22.872Z,28.76
2023-02-27T13:13:56.261Z,29.33
2023-02-27T13:16:30.526Z,30.09
2023-02-27T13:19:05.477Z,30.19
2023-02-27T13:21:39.951Z,30.17
2023-02-27T13:24:26.283Z,29.96
2023-02-27T13:26:59.966Z,30.46
2023-02-27T13:29:36.569Z,30.17
2023-02-27T13:32:17.547Z,30.07
2023-02-27T13:34:49.286Z,30.59
2023-02-27T13:37:17.709Z,31.06
2023-02-27T13:39:57.194Z,31.55
2023-02-27T13:42:56.695Z,31.90
2023-02-27T13:45:48.446Z,31.82
2023-02-27T13:48:40.124Z,31.73
2023-02-27T13:51:13.114Z,31.99
2023-02-27T13:53:41.526Z,31.91
2023-02-27T13:56:25.139Z,31.51
2023-02-27T13:58:53.547Z,32.02
2023-02-27T14:01:28.613Z,32.52
2023-02-27T14:04:00.148Z,32.35
2023-02-27T14:06:29.206Z,32.78
2023-02-27T14:09:14.084Z,32.54
2023-02-27T14:11:54.962Z,32.80
2023-02-27T14:14:50.279Z,33.34
2023-02-27T14:17:44.856Z,33.76
2023-02-27T14:20:15.937Z,34.46
2023-02-27T14:23:18.855Z,34.43
2023-02-27T14:25:49.210Z,35.22
2023-02-27T14:28:26.794Z,35.34
2023-02-27T14:30:59.625Z,35.61
2023-02-27T14:33:42.534Z,36.01
2023-02-27T14:36:20.536Z,36.55
2023-02-27T14:38:50.734Z,36.66
2023-02-27T14:41:31.959Z,36.76
2023-02-27T14:44:02.114Z,37.02
2023-02-27T14:46:32.295Z,36.87
2023-02-27T14:49:03.037Z,37.17
2023-02-27T14:51:33.049Z,37.22
2023-02-27T14:54:04.933Z,37.46
2023-02-27T14:56:33.842Z,37.48
2023-02-27T14:59:04.970Z,36.96
2023-02-27T15:01:37.700Z,37.34
2023-02-27T15:04:08.604Z,37.29
2023-02-27T15:06:44.651Z,37.43
2023-02-27T15:09:23.688Z,37.74
2023-02-27T15:12:03.435Z,37.90
2023-02-27T15:14:37.694Z,37.47
2023-02-27T15:17:16.119Z,37.83
2023-02-27T15:19:49.011Z,37.98
2023-02-27T15:22:36.125Z,38.11
2023-02-27T15:25:08.212Z,38.52
2023-02-27T15:27:38.597Z,38.63
2023-02-27T15:30:22.041Z,38.20
2023-02-27T15:32:50.893Z,38.53
2023-02-27T15:35:23.520Z,38.48
2023-02-27T15:37:54.771Z,38.20
2023-02-27T15:40:26.671Z,38.25
2023-02-27T15:42:56.522Z,38.32
2023-02-27T15:45:29.048Z,38.69
2023-02-27T15:47:58.144Z,39.10
2023-02-27T15:50:28.952Z,39.04
2023-02-27T15:53:04.111Z,39.04
2023-02-27T15:55:35.589Z,38.97
2023-02-27T15:58:04.363Z,38.99
2023-02-27T16:00:36.187Z,39.11
2023-02-27T16:03:07.399Z,39.14
2023-02-27T16:05:38.636Z,39.30
2023-02-27T16:08:07.840Z,39.43
2023-02-27T16:10:38.832Z,39.58
2023-02-27T16:13:30.537Z,39.59
2023-02-27T16:16:05.827Z,39.53
2023-02-27T16:18:37.590Z,39.88
2023-02-27T16:21:14.396Z,39.91
2023-02-27T16:23:42.964Z,40.17
2023-02-27T16:26:29.389Z,40.31
2023-02-27T16:29:00.479Z,40.44
2023-02-27T16:31:32.741Z,40.46
2023-02-27T16:34:03.300Z,40.53
2023-02-27T16:36:33.814Z,40.68
2023-02-27T16:39:02.204Z,40.83
2023-02-27T16:41:30.659Z,41.11
2023-02-27T16:43:59.087Z,41.19
2023-02-27T16:46:27.684Z,41.29
2023-02-27T16:49:04.545Z,41.62
2023-02-27T16:51:38.905Z,41.98
2023-02-27T16:54:07.244Z,42.19
2023-02-27T16:56:38.552Z,42.51
2023-02-27T16:59:07.483Z,42.52
2023-02-27T17:01:36.140Z,42.50
2023-02-27T17:04:16.402Z,42.64
2023-02-27T17:06:48.042Z,43.01
2023-02-27T17:09:16.568Z,43.10
2023-02-27T17:11:45.000Z,43.39
2023-02-27T17:14:13.346Z,43.55
2023-02-27T17:16:41.667Z,43.74
2023-02-27T17:19:11.534Z,43.96
2023-02-27T17:21:39.971Z,43.87
2023-02-27T17:24:08.774Z,43.94
2023-02-27T17:26:37.743Z,43.93
2023-02-27T17:29:06.466Z,43.90
2023-02-27T17:31:34.967Z,44.19
2023-02-27T17:34:05.145Z,44.11
2023-02-27T17:36:34.856Z,43.98
2023-02-27T17:39:03.258Z,44.00
2023-02-27T17:41:33.039Z,44.18
2023-02-27T17:44:01.890Z,44.41
2023-02-27T17:46:31.719Z,44.43
2023-02-27T17:49:01.284Z,44.43
2023-02-27T17:51:31.164Z,44.48
2023-02-27T17:54:02.685Z,44.58
2023-02-27T17:56:31.213Z,44.67
2023-02-27T17:58:59.724Z,44.67
2023-02-27T18:01:29.050Z,44.54
2023-02-27T18:03:57.743Z,44.58
2023-02-27T18:06:26.346Z,44.58
2023-02-27T18:08:55.123Z,44.55
2023-02-27T18:11:24.918Z,44.59
2023-02-27T18:13:54.322Z,44.84
2023-02-27T18:16:23.165Z,45.01
2023-02-27T18:18:51.826Z,45.14
2023-02-27T18:21:21.921Z,45.27
2023-02-27T18:23:51.470Z,45.38
2023-02-27T18:26:32.602Z,45.57
2023-02-27T18:29:05.123Z,45.83
2023-02-27T18:31:35.070Z,46.09
2023-02-27T18:34:04.051Z,46.30
2023-02-27T18:36:32.932Z,46.27
2023-02-27T18:39:01.657Z,46.31
2023-02-27T18:41:30.591Z,46.19
2023-02-27T18:43:59.635Z,46.26
2023-02-27T18:46:30.113Z,46.23
2023-02-27T18:48:58.990Z,46.31
2023-02-27T18:51:29.157Z,46.46
2023-02-27T18:53:58.445Z,46.55
2023-02-27T18:56:28.201Z,46.76
2023-02-27T18:59:01.964Z,47.17
2023-02-27T19:01:33.513Z,47.21
2023-02-27T19:04:04.936Z,47.33
2023-02-27T19:06:33.783Z,47.32
2023-02-27T19:09:02.052Z,47.41
2023-02-27T19:11:33.552Z,47.58
2023-02-27T19:14:02.866Z,47.78
2023-02-27T19:16:32.954Z,47.84
2023-02-27T19:19:03.213Z,48.05
2023-02-27T19:21:31.945Z,48.26
2023-02-27T19:24:00.286Z,48.26
2023-02-27T19:26:29.489Z,48.32
2023-02-27T19:28:58.355Z,48.36
2023-02-27T19:31:28.688Z,48.32
2023-02-27T19:33:58.906Z,48.29
2023-02-27T19:36:29.144Z,48.28
2023-02-27T19:38:58.280Z,48.35
2023-02-27T19:41:26.688Z,48.34
2023-02-27T19:43:55.461Z,48.24
2023-02-27T19:46:27.112Z,48.25
2023-02-27T19:48:58.059Z,48.31
2023-02-27T19:51:27.923Z,48.41
2023-02-27T19:53:56.396Z,48.48
2023-02-27T19:56:28.048Z,48.51
2023-02-27T19:58:57.820Z,48.55
2023-02-27T20:01:28.048Z,48.67
2023-02-27T20:03:57.410Z,48.68
2023-02-27T20:06:29.641Z,48.64
2023-02-27T20:08:59.890Z,48.69
2023-02-27T20:11:30.576Z,48.62
2023-02-27T20:13:58.966Z,48.64
2023-02-27T20:16:28.469Z,48.60
2023-02-27T20:18:56.928Z,48.66
2023-02-27T20:21:30.176Z,48.52
2023-02-27T20:23:59.229Z,48.68
2023-02-27T20:26:30.833Z,48.71
2023-02-27T20:29:01.566Z,48.73
2023-02-27T20:31:32.497Z,48.80
2023-02-27T20:34:01.785Z,48.86
2023-02-27T20:36:31.464Z,48.90
2023-02-27T20:38:59.799Z,48.89
2023-02-27T20:41:29.763Z,48.89
2023-02-27T20:43:58.692Z,48.93
2023-02-27T20:46:29.049Z,48.97
2023-02-27T20:49:00.233Z,49.10
2023-02-27T20:51:32.149Z,49.15
2023-02-27T20:54:01.405Z,49.30
2023-02-27T20:56:31.720Z,49.42
2023-02-27T20:59:00.608Z,49.46
2023-02-27T21:01:29.557Z,49.53
2023-02-27T21:03:59.147Z,49.50
2023-02-27T21:06:28.186Z,49.47
2023-02-27T21:08:58.298Z,49.50
2023-02-27T21:11:29.635Z,49.50
2023-02-27T21:13:59.367Z,49.61
2023-02-27T21:16:27.718Z,49.66
2023-02-27T21:18:56.761Z,49.63
2023-02-27T21:21:30.778Z,49.53
2023-02-27T21:24:00.995Z,49.73
2023-02-27T21:26:31.903Z,49.78
2023-02-27T21:29:02.751Z,49.76
2023-02-27T21:31:33.477Z,49.76
2023-02-27T21:34:03.107Z,49.79
2023-02-27T21:36:33.297Z,49.81
2023-02-27T21:39:05.828Z,49.78
2023-02-27T21:41:35.471Z,49.92
2023-02-27T21:44:05.552Z,49.98
2023-02-27T21:46:35.222Z,50.02
2023-02-27T21:49:04.132Z,50.06
2023-02-27T21:51:40.390Z,50.08
2023-02-27T21:54:12.579Z,50.02
2023-02-27T21:56:42.078Z,50.06
2023-02-27T21:59:11.160Z,50.02
2023-02-27T22:01:40.043Z,50.05
2023-02-27T22:04:08.726Z,50.12
2023-02-27T22:06:37.133Z,50.27
2023-02-27T22:09:07.134Z,50.38
2023-02-27T22:11:37.399Z,50.50
2023-02-27T22:14:07.284Z,50.64
2023-02-27T22:16:36.198Z,50.82
2023-02-27T22:19:07.669Z,50.95
2023-02-27T22:21:37.475Z,51.10
2023-02-27T22:24:06.579Z,51.21
2023-02-27T22:26:36.549Z,51.27
2023-02-27T22:29:06.011Z,51.29
2023-02-27T22:31:35.942Z,51.31
2023-02-27T22:34:06.389Z,51.39
2023-02-27T22:36:35.858Z,51.49
2023-02-27T22:39:04.707Z,51.53
2023-02-27T22:41:38.083Z,51.67
2023-02-27T22:44:07.366Z,52.13
2023-02-27T22:46:37.614Z,52.35
2023-02-27T22:49:08.191Z,52.78
2023-02-27T22:51:36.657Z,52.91
2023-02-27T22:54:06.971Z,52.92
2023-02-27T22:56:37.613Z,52.79
2023-02-27T22:59:06.094Z,52.69
2023-02-27T23:01:36.342Z,52.65
2023-02-27T23:04:07.897Z,52.58
2023-02-27T23:06:38.910Z,52.53
2023-02-27T23:09:08.682Z,52.53
2023-02-27T23:11:38.624Z,52.46
2023-02-27T23:14:06.966Z,52.39
2023-02-27T23:16:35.408Z,52.36
2023-02-27T23:19:04.124Z,52.40
2023-02-27T23:21:34.576Z,52.42
2023-02-27T23:24:05.230Z,52.44
2023-02-27T23:26:35.639Z,52.46
2023-02-27T23:29:05.496Z,52.48
2023-02-27T23:31:35.444Z,52.53
2023-02-27T23:34:05.381Z,52.46
2023-02-27T23:36:33.998Z,52.56
2023-02-27T23:39:03.051Z,52.58
2023-02-27T23:41:31.582Z,52.55
2023-02-27T23:44:17.566Z,52.57
2023-02-27T23:46:47.375Z,52.53
2023-02-27T23:49:15.685Z,52.59
2023-02-27T23:51:43.989Z,52.66
2023-02-27T23:54:12.297Z,52.67
2023-02-27T23:56:40.701Z,52.67
2023-02-27T23:59:09.235Z,52.68
